createdAt,value
2023-01-13T00:04:06.818Z,7.9
2023-01-13T00:09:08.147Z,7.9
2023-01-13T00:14:10.078Z,7.87
2023-01-13T00:19:11.736Z,7.97
2023-01-13T00:24:13.607Z,8.01
2023-01-13T00:29:15.831Z,8.03
2023-01-13T00:34:17.456Z,8.03
2023-01-13T00:39:19.320Z,8.04
2023-01-13T00:44:20.882Z,8.07
2023-01-13T00:49:22.097Z,8.06
2023-01-13T00:54:23.358Z,8.05
2023-01-13T00:59:24.689Z,8.07
2023-01-13T01:04:26.749Z,8.09
2023-01-13T01:09:28.668Z,8.03
2023-01-13T01:14:30.661Z,8.05
2023-01-13T01:19:31.980Z,8.03
2023-01-13T01:24:33.564Z,8.01
2023-01-13T01:29:35.501Z,7.98
2023-01-13T01:34:36.751Z,8.06
2023-01-13T01:39:38.776Z,8.13
2023-01-13T01:44:40.565Z,8.1
2023-01-13T01:49:42.711Z,8.13
2023-01-13T01:54:44.647Z,8.17
2023-01-13T01:59:46.716Z,8.21
2023-01-13T02:04:47.994Z,8.2
2023-01-13T02:09:49.589Z,8.28
2023-01-13T02:14:51.195Z,8.32
2023-01-13T02:19:52.806Z,8.33
2023-01-13T02:24:54.690Z,8.37
2023-01-13T02:30:02.892Z,8.41
2023-01-13T02:35:04.636Z,8.47
2023-01-13T02:40:06.008Z,8.49
2023-01-13T02:45:07.687Z,8.53
2023-01-13T02:50:09.586Z,8.54
2023-01-13T02:55:11.468Z,8.56
2023-01-13T03:00:13.273Z,8.55
2023-01-13T03:05:14.781Z,8.56
2023-01-13T03:10:16.127Z,8.59
2023-01-13T03:50:27.547Z,8.85
2023-01-13T03:55:29.113Z,8.87
2023-01-13T04:00:31.125Z,8.92
2023-01-13T04:05:33.099Z,8.95
2023-01-13T04:10:34.325Z,8.97
2023-01-13T04:20:37.760Z,9
2023-01-13T04:25:39.741Z,9.02
2023-01-13T04:40:44.808Z,9.07
2023-01-13T04:45:46.668Z,9.12
2023-01-13T04:50:48.114Z,9.09
2023-01-13T04:55:49.882Z,9.13
2023-01-13T05:00:52.111Z,9.16
2023-01-13T05:05:54.014Z,9.22
2023-01-13T05:10:55.423Z,9.18
2023-01-13T05:15:56.997Z,9.21
2023-01-13T05:20:58.660Z,9.26
2023-01-13T05:26:00.594Z,9.3
2023-01-13T05:31:02.405Z,9.27
2023-01-13T05:36:03.538Z,9.3
2023-01-13T05:41:05.349Z,9.35
2023-01-13T05:46:07.334Z,9.37
2023-01-13T05:51:09.302Z,9.39
2023-01-13T05:56:11.071Z,9.41
2023-01-13T06:01:13.024Z,9.46
2023-01-13T06:06:14.572Z,9.41
2023-01-13T06:11:15.959Z,9.43
2023-01-13T06:16:17.317Z,9.47
2023-01-13T06:21:19.234Z,9.53
2023-01-13T06:26:20.893Z,9.51
2023-01-13T06:31:22.512Z,9.52
2023-01-13T06:36:23.909Z,9.58
2023-01-13T06:41:25.076Z,9.6
2023-01-13T06:46:27.464Z,9.58
2023-01-13T06:51:29.029Z,9.62
2023-01-13T06:56:31.153Z,9.68
2023-01-13T07:01:33.473Z,9.67
2023-01-13T07:06:34.745Z,9.6
2023-01-13T07:11:36.051Z,9.59
2023-01-13T07:16:37.624Z,9.64
2023-01-13T07:21:39.254Z,9.64
2023-01-13T07:26:41.450Z,9.6
2023-01-13T07:31:42.907Z,9.6
2023-01-13T07:36:44.640Z,9.6
2023-01-13T07:41:46.471Z,9.53
2023-01-13T07:46:48.463Z,9.47
2023-01-13T07:51:49.746Z,9.49
2023-01-13T07:56:51.196Z,9.55
2023-01-13T08:01:52.606Z,9.55
2023-01-13T08:06:54.354Z,9.6
2023-01-13T08:11:55.613Z,9.68
2023-01-13T08:16:56.983Z,9.76
2023-01-13T08:21:58.814Z,9.7
2023-01-13T08:27:00.431Z,9.72
2023-01-13T08:32:02.601Z,9.87
2023-01-13T08:37:03.784Z,9.95
2023-01-13T08:42:05.728Z,9.97
2023-01-13T08:47:07.799Z,10.07
2023-01-13T08:52:09.842Z,10.18
2023-01-13T08:57:11.530Z,10.3
2023-01-13T09:02:12.989Z,10.27
2023-01-13T09:07:14.627Z,10.35
2023-01-13T09:12:16.424Z,10.44
2023-01-13T09:17:18.280Z,10.49
2023-01-13T09:22:20.257Z,10.44
2023-01-13T09:27:21.625Z,10.48
2023-01-13T09:32:23.524Z,10.61
2023-01-13T09:37:24.828Z,10.67
2023-01-13T09:42:26.364Z,10.72
2023-01-13T09:47:28.556Z,10.97
2023-01-13T09:52:29.131Z,11.32
2023-01-13T09:57:31.131Z,12.1
2023-01-13T10:02:32.793Z,12.24
2023-01-13T10:07:34.868Z,12.43
2023-01-13T10:12:36.107Z,12.51
2023-01-13T10:17:38.225Z,12.6
2023-01-13T10:22:39.688Z,13.95
2023-01-13T10:27:41.823Z,16.11
2023-01-13T10:32:43.120Z,16.74
2023-01-13T10:37:44.745Z,17.59
2023-01-13T10:42:47.044Z,18.16
2023-01-13T10:47:49.067Z,17.6
2023-01-13T10:52:50.715Z,16.69
2023-01-13T10:57:52.227Z,15.92
2023-01-13T11:02:54.171Z,15.24
2023-01-13T11:07:55.743Z,14.45
2023-01-13T11:12:57.479Z,14.16
2023-01-13T11:17:59.684Z,13.66
2023-01-13T11:23:01.554Z,13.25
2023-01-13T11:28:03.680Z,12.94
2023-01-13T11:33:04.903Z,12.57
2023-01-13T11:38:06.695Z,12.3
2023-01-13T11:43:08.060Z,12
2023-01-13T11:48:10.215Z,12.01
2023-01-13T11:53:11.427Z,11.96
2023-01-13T11:58:12.794Z,11.85
2023-01-13T12:03:14.308Z,11.99
2023-01-13T12:08:15.687Z,12.14
2023-01-13T12:13:17.189Z,12.16
2023-01-13T12:18:19.234Z,12.02
2023-01-13T12:23:20.732Z,11.89
2023-01-13T12:28:22.690Z,11.87
2023-01-13T12:33:24.789Z,11.93
2023-01-13T12:38:26.009Z,11.58
2023-01-13T12:43:27.874Z,11.44
2023-01-13T12:48:29.531Z,11.45
2023-01-13T12:53:30.801Z,11.35
2023-01-13T12:58:32.648Z,11.1
2023-01-13T13:03:34.343Z,11.12
2023-01-13T13:08:35.969Z,11.21
2023-01-13T13:13:37.665Z,11.2
2023-01-13T13:18:39.622Z,11.04
2023-01-13T13:23:41.619Z,10.95
2023-01-13T13:28:43.821Z,10.92
2023-01-13T13:33:45.723Z,10.83
2023-01-13T13:38:47.132Z,10.77
2023-01-13T13:43:49.240Z,10.71
2023-01-13T13:48:50.785Z,10.69
2023-01-13T13:53:51.960Z,10.6
2023-01-13T13:58:53.220Z,10.57
2023-01-13T14:03:54.863Z,10.08
2023-01-13T14:08:56.035Z,9.6
2023-01-13T14:13:57.270Z,9.05
2023-01-13T14:18:59.366Z,8.47
2023-01-13T14:24:01.183Z,8.17
2023-01-13T14:29:03.252Z,8.06
2023-01-13T14:34:31.534Z,7.86
2023-01-13T14:39:07.314Z,7.81
2023-01-13T14:44:09.339Z,7.75
2023-01-13T14:49:11.093Z,7.59
2023-01-13T14:54:12.756Z,7.54
2023-01-13T14:59:14.359Z,7.55
2023-01-13T15:04:15.862Z,7.58
2023-01-13T15:09:17.546Z,7.57
2023-01-13T15:14:19.335Z,7.53
2023-01-13T15:19:21.469Z,7.52
2023-01-13T15:24:23.537Z,7.54
2023-01-13T15:29:25.009Z,7.51
2023-01-13T15:34:26.786Z,7.48
2023-01-13T15:39:28.056Z,7.44
2023-01-13T15:44:29.549Z,7.42
2023-01-13T15:49:31.543Z,7.35
2023-01-13T15:54:33.011Z,7.29
2023-01-13T15:59:34.653Z,7.24
2023-01-13T16:04:36.509Z,7.19
2023-01-13T16:09:38.246Z,7.08
2023-01-13T16:14:40.393Z,7.03
2023-01-13T16:19:41.762Z,6.98
2023-01-13T16:24:43.652Z,6.92
2023-01-13T16:29:45.585Z,6.82
2023-01-13T16:34:47.161Z,6.8
2023-01-13T16:39:48.434Z,6.8
2023-01-13T16:44:50.260Z,6.79
2023-01-13T16:49:52.308Z,6.74
2023-01-13T16:54:53.915Z,6.77
2023-01-13T16:59:56.108Z,6.81
2023-01-13T17:04:57.179Z,6.8
2023-01-13T17:09:58.443Z,6.79
2023-01-13T17:15:00.497Z,6.84
2023-01-13T17:20:01.897Z,6.9
2023-01-13T17:25:04.010Z,6.89
2023-01-13T17:30:05.150Z,6.92
2023-01-13T17:35:07.321Z,7
2023-01-13T17:40:09.473Z,7.1
2023-01-13T17:45:10.780Z,7.12
2023-01-13T17:50:12.185Z,7.15
2023-01-13T17:55:13.472Z,7.19
2023-01-13T18:00:15.544Z,7.19
2023-01-13T18:20:21.379Z,6.86
2023-01-13T18:40:28.717Z,6.55
2023-01-13T18:45:29.969Z,6.48
2023-01-13T18:50:31.364Z,6.48
2023-01-13T19:05:36.324Z,6.45
2023-01-13T19:10:38.086Z,6.48
2023-01-13T19:20:48.038Z,6.48
2023-01-13T19:25:49.511Z,6.42
2023-01-13T19:30:51.241Z,6.44
2023-01-13T19:35:53.022Z,6.45
2023-01-13T19:40:55.160Z,6.37
2023-01-13T19:45:57.163Z,6.34
2023-01-13T19:50:59.076Z,6.33
2023-01-13T19:56:01.050Z,6.33
2023-01-13T20:01:02.858Z,6.3
2023-01-13T20:06:04.217Z,6.32
2023-01-13T20:11:05.791Z,6.38
2023-01-13T20:16:07.504Z,6.39
2023-01-13T20:21:09.600Z,6.39
2023-01-13T20:26:11.613Z,6.42
2023-01-13T20:31:13.286Z,6.42
2023-01-13T20:36:15.253Z,6.31
2023-01-13T20:41:16.959Z,6.27
2023-01-13T20:46:18.776Z,6.25
2023-01-13T20:51:19.930Z,6.22
2023-01-13T20:56:21.564Z,6.13
2023-01-13T21:01:23.269Z,6.11
2023-01-13T21:06:24.456Z,6.09
2023-01-13T21:11:26.205Z,6.05
2023-01-13T21:16:27.707Z,5.89
2023-01-13T21:21:29.186Z,5.85
2023-01-13T21:26:31.176Z,5.82
2023-01-13T21:31:32.910Z,5.79
2023-01-13T21:36:34.143Z,5.73
2023-01-13T21:41:35.982Z,5.71
2023-01-13T21:46:37.275Z,5.64
2023-01-13T21:51:38.701Z,5.56
2023-01-13T21:56:39.868Z,5.47
2023-01-13T22:01:57.140Z,5.45
2023-01-13T22:06:42.684Z,5.43
2023-01-13T22:11:44.123Z,5.35
2023-01-13T22:16:45.968Z,5.32
2023-01-13T22:21:47.247Z,5.25
2023-01-13T22:26:48.762Z,5.16
2023-01-13T22:31:50.365Z,5.08
2023-01-13T22:36:52.355Z,5.06
2023-01-13T22:41:54.207Z,5.04
2023-01-13T22:46:55.937Z,4.98
2023-01-13T22:51:58.014Z,4.86
2023-01-13T22:56:59.224Z,4.85
2023-01-13T23:02:00.755Z,4.85
2023-01-13T23:07:02.136Z,4.85
2023-01-13T23:12:04.188Z,4.79
2023-01-13T23:17:06.408Z,4.77
2023-01-13T23:22:07.518Z,4.8
2023-01-13T23:27:09.596Z,4.78
2023-01-13T23:32:10.976Z,4.75
2023-01-13T23:37:12.253Z,4.77
2023-01-13T23:42:13.626Z,4.71
2023-01-13T23:47:15.694Z,4.69
2023-01-13T23:52:17.115Z,4.67
2023-01-13T23:57:18.643Z,4.65
